Time;durP1;ratioP1;P1;durP2;ratioP2;P2;SDS_P1;SDS_P2;PMS_P1;PMS_P2;Temp;Humidity;BMP_temperature;BMP_pressure;BME280_temperature;BME280_humidity;BME280_pressure;Samples;Min_cycle;Max_cycle;Signal;HPM_P1;HPM_P2
2022/05/10 00:01:21;;;;;;;;;16.67;16.33;;;;;21.22;46.32;101280.72;4879198;29;45735;-86
2022/05/10 00:03:47;;;;;;;;;15.67;15.67;;;;;21.27;46.33;101293.22;4877098;29;45370;-86
2022/05/10 00:06:12;;;;;;;;;17.00;17.00;;;;;21.20;46.28;101277.16;4879051;29;45171;-85
2022/05/10 00:08:39;;;;;;;;;16.33;15.33;;;;;21.29;45.96;101291.38;4878115;29;46366;-85
2022/05/10 00:11:05;;;;;;;;;16.67;16.67;;;;;21.20;46.45;101274.47;4876830;29;44911;-85
2022/05/10 00:13:30;;;;;;;;;17.33;17.33;;;;;21.27;46.48;101284.19;4861828;29;44771;-86
2022/05/10 00:15:56;;;;;;;;;17.67;17.67;;;;;21.17;46.49;101273.59;4879684;29;45407;-86
2022/05/10 00:18:27;;;;;;;;;17.33;17.00;;;;;21.25;46.50;101278.84;4860030;29;47857;-86
2022/05/10 00:20:53;;;;;;;;;17.33;16.33;;;;;21.17;46.90;101267.31;4877487;29;45567;-86
2022/05/10 00:23:19;;;;;;;;;17.00;17.00;;;;;21.16;47.06;101279.03;4859570;29;45356;-86
2022/05/10 00:25:44;;;;;;;;;19.67;18.00;;;;;21.12;46.85;101272.78;4858342;29;45328;-86
2022/05/10 00:28:10;;;;;;;;;18.00;18.00;;;;;21.11;47.18;101271.03;4853884;29;46163;-86
2022/05/10 00:30:36;;;;;;;;;19.67;19.67;;;;;21.07;47.06;101263.03;4854942;29;45459;-86
2022/05/10 00:33:02;;;;;;;;;15.33;15.00;;;;;21.09;47.32;101266.59;4854693;29;45526;-85
2022/05/10 00:35:30;;;;;;;;;18.00;17.33;;;;;21.10;47.11;101268.34;4857671;29;45393;-86
2022/05/10 00:37:59;;;;;;;;;16.33;16.33;;;;;20.99;47.12;101244.25;4874010;29;45405;-87
2022/05/10 00:40:28;;;;;;;;;20.33;18.33;;;;;21.02;47.10;101256.81;4859369;29;45365;-86
2022/05/10 00:43:20;;;;;;;;;18.67;17.67;;;;;20.89;47.31;101231.84;4858580;29;44791;-87
2022/05/10 00:46:00;;;;;;;;;18.33;17.67;;;;;21.06;47.30;101256.69;4838680;29;45277;-86
2022/05/10 00:48:45;;;;;;;;;18.00;16.67;;;;;21.03;47.74;101248.66;4838167;29;47067;-87
2022/05/10 00:51:24;;;;;;;;;19.67;18.33;;;;;20.98;47.80;101240.63;4838034;29;45874;-87
2022/05/10 00:54:08;;;;;;;;;18.67;17.33;;;;;20.97;48.24;101246.09;4837362;29;44815;-87
2022/05/10 00:56:47;;;;;;;;;20.67;17.00;;;;;20.89;48.15;101246.25;4838409;29;45511;-86
2022/05/10 00:59:49;;;;;;;;;17.00;16.33;;;;;20.88;48.80;101243.56;4855400;29;45562;-87
2022/05/10 01:02:31;;;;;;;;;21.33;20.00;;;;;20.78;49.08;101238.38;4850163;29;45414;-86
2022/05/10 01:05:07;;;;;;;;;21.33;19.33;;;;;20.72;49.27;101235.78;4853214;29;45536;-86
2022/05/10 01:07:42;;;;;;;;;18.33;18.33;;;;;20.72;49.77;101249.31;4854102;29;45847;-87
2022/05/10 01:10:21;;;;;;;;;21.00;21.00;;;;;20.69;50.34;101243.94;4853870;29;47099;-87
2022/05/10 01:13:03;;;;;;;;;22.00;21.00;;;;;20.58;50.88;101229.69;4855644;29;45318;-87
2022/05/10 01:15:32;;;;;;;;;24.67;24.00;;;;;20.58;50.71;101233.34;4837509;29;45520;-87
2022/05/10 01:17:58;;;;;;;;;21.33;18.33;;;;;20.47;50.88;101232.63;4838084;29;45055;-86
2022/05/10 01:20:33;;;;;;;;;19.00;19.00;;;;;20.51;50.93;101228.94;4835369;29;47609;-86
2022/05/10 01:23:30;;;;;;;;;20.67;19.33;;;;;20.50;51.25;101229.88;4834954;29;44827;-86
2022/05/10 01:26:22;;;;;;;;;21.67;21.67;;;;;20.45;51.42;101231.75;4836152;29;45295;-86
2022/05/10 01:28:56;;;;;;;;;18.33;18.33;;;;;20.29;51.81;101208.66;4846998;29;44846;-86
2022/05/10 01:31:28;;;;;;;;;22.67;21.67;;;;;20.38;52.15;101222.00;4851045;29;47308;-87
2022/05/10 01:33:58;;;;;;;;;24.67;22.67;;;;;20.35;52.36;101224.75;4834639;29;45992;-87
2022/05/10 01:36:29;;;;;;;;;21.67;18.00;;;;;20.26;52.64;101214.09;4850576;29;45728;-87
2022/05/10 01:39:30;;;;;;;;;22.00;22.00;;;;;20.25;52.62;101206.94;4833464;29;45408;-86
2022/05/10 01:41:59;;;;;;;;;21.00;21.00;;;;;20.19;53.02;101208.81;4848244;29;47928;-86
2022/05/10 01:44:41;;;;;;;;;20.33;20.00;;;;;20.16;53.02;101192.69;4851137;29;45435;-86
2022/05/10 01:47:19;;;;;;;;;24.00;24.00;;;;;20.17;53.08;101194.44;4835304;29;44907;-86
2022/05/10 01:49:56;;;;;;;;;22.00;20.00;;;;;20.17;53.08;101201.66;4853064;29;45464;-87
2022/05/10 01:52:39;;;;;;;;;24.00;22.33;;;;;20.21;52.90;101205.22;4852090;29;47509;-86
2022/05/10 01:55:24;;;;;;;;;21.33;18.67;;;;;20.26;52.52;101209.63;4854120;29;44832;-85
2022/05/10 01:57:52;;;;;;;;;23.00;23.00;;;;;20.22;52.74;101196.19;4853643;29;44813;-85
2022/05/10 02:00:26;;;;;;;;;22.00;20.67;;;;;20.17;52.53;101183.66;4853698;29;45407;-86
2022/05/10 02:03:00;;;;;;;;;20.00;20.00;;;;;20.34;52.52;101201.34;4855163;29;45722;-86
2022/05/10 02:05:37;;;;;;;;;21.00;19.00;;;;;20.39;52.42;101194.06;4852743;29;45528;-85
2022/05/10 02:08:14;;;;;;;;;21.00;21.00;;;;;20.44;52.10;101193.97;4834438;29;45375;-86
2022/05/10 02:10:50;;;;;;;;;22.00;22.00;;;;;20.45;51.90;101193.06;4852972;29;44961;-86
2022/05/10 02:13:26;;;;;;;;;20.33;20.00;;;;;20.49;51.74;101184.84;4850455;29;47905;-86
2022/05/10 02:16:14;;;;;;;;;25.00;23.00;;;;;20.55;51.73;101187.44;4850511;29;45738;-86
2022/05/10 02:18:55;;;;;;;;;17.33;14.33;;;;;20.63;51.51;101189.13;4866009;29;45288;-86
2022/05/10 02:21:26;;;;;;;;;21.00;21.00;;;;;20.54;51.44;101172.16;4852626;29;45225;-86
2022/05/10 02:24:05;;;;;;;;;18.33;17.33;;;;;20.63;51.43;101175.63;4852296;29;47656;-87
2022/05/10 02:26:42;;;;;;;;;20.00;19.67;;;;;20.63;51.56;101183.72;4853220;29;45386;-87
2022/05/10 02:29:31;;;;;;;;;18.33;18.33;;;;;20.63;51.30;101184.59;4869772;29;45525;-86
2022/05/10 02:35:27;;;;;;;;;21.67;21.67;;;;;20.55;51.60;101171.22;4872235;29;45505;-86
2022/05/10 02:37:52;;;;;;;;;23.00;20.00;;;;;20.56;51.66;101175.72;4872673;29;45539;-85
2022/05/10 02:40:18;;;;;;;;;19.00;19.00;;;;;20.54;51.86;101177.56;4872184;29;45439;-86
2022/05/10 02:42:48;;;;;;;;;26.33;24.00;;;;;20.58;51.73;101165.78;4872214;29;45446;-87
2022/05/10 02:45:18;;;;;;;;;20.33;18.67;;;;;20.52;51.56;101167.66;4855677;29;47816;-86
2022/05/10 02:47:46;;;;;;;;;19.33;19.00;;;;;20.58;52.14;101171.19;4871029;29;44895;-86
2022/05/10 02:50:33;;;;;;;;;17.00;17.00;;;;;20.57;51.76;101163.97;4853739;29;45424;-85
2022/05/10 02:53:00;;;;;;;;;24.67;21.67;;;;;20.49;52.16;101157.81;4870148;29;45615;-86
2022/05/10 02:56:02;;;;;;;;;19.67;18.67;;;;;20.58;51.54;101168.50;4853414;29;47078;-86
2022/05/10 02:58:45;;;;;;;;;23.67;22.33;;;;;20.59;51.88;101172.06;4868663;29;45458;-86
2022/05/10 03:04:38;;;;;;;;;21.33;20.00;;;;;20.57;51.93;101161.25;4869648;29;45594;-86
2022/05/10 03:07:06;;;;;;;;;23.00;21.33;;;;;20.53;51.74;101155.97;4854381;29;46802;-87
2022/05/10 03:09:32;;;;;;;;;25.67;20.67;;;;;20.44;51.79;101148.03;4854757;29;45827;-87
2022/05/10 03:11:58;;;;;;;;;20.00;19.00;;;;;20.44;51.51;101146.25;4853967;29;45531;-86
2022/05/10 03:14:23;;;;;;;;;20.67;19.00;;;;;20.47;51.78;101153.38;4854819;29;45525;-86
2022/05/10 03:16:49;;;;;;;;;19.00;18.33;;;;;20.48;51.51;101149.75;4854961;29;46947;-85
2022/05/10 03:19:16;;;;;;;;;17.67;16.67;;;;;20.48;51.60;101142.56;4855097;29;45403;-86
2022/05/10 03:21:42;;;;;;;;;20.00;20.00;;;;;20.50;51.37;101142.50;4854973;29;45365;-86
2022/05/10 03:24:08;;;;;;;;;18.67;17.67;;;;;20.49;51.16;101135.34;4871767;29;45660;-85
2022/05/10 03:26:34;;;;;;;;;14.33;14.33;;;;;20.53;50.76;101132.53;4859672;29;47547;-86
2022/05/10 03:32:22;;;;;;;;;15.00;14.33;;;;;20.58;50.62;101136.06;4872094;29;45752;-85
2022/05/10 03:34:59;;;;;;;;;17.00;17.00;;;;;20.56;50.60;101131.56;4854166;29;45265;-86
2022/05/10 03:37:28;;;;;;;;;14.67;14.67;;;;;20.55;50.27;101125.28;4854439;29;46733;-86
2022/05/10 03:39:54;;;;;;;;;15.67;15.67;;;;;20.54;50.79;101128.91;4870213;29;45420;-86
2022/05/10 03:42:23;;;;;;;;;19.67;18.33;;;;;20.60;50.56;101127.91;4870417;29;45833;-87
2022/05/10 03:44:52;;;;;;;;;18.00;17.00;;;;;20.55;50.63;101127.97;4852863;29;45346;-87
2022/05/10 03:47:19;;;;;;;;;18.00;18.00;;;;;20.41;50.64;101104.88;4868755;29;45702;-86
2022/05/10 03:49:46;;;;;;;;;15.67;13.67;;;;;20.47;50.46;101111.03;4852857;29;44803;-87
2022/05/10 03:52:12;;;;;;;;;18.67;18.67;;;;;20.50;50.55;101115.47;4868438;29;45484;-87
2022/05/10 03:54:38;;;;;;;;;15.33;15.33;;;;;20.50;50.67;101116.38;4869742;29;45296;-85
2022/05/10 03:57:05;;;;;;;;;18.00;16.67;;;;;20.53;50.42;101118.13;4851972;29;47092;-86
2022/05/10 03:59:30;;;;;;;;;16.67;16.00;;;;;20.55;50.11;101122.56;4851650;29;45887;-86
2022/05/10 04:01:57;;;;;;;;;17.00;17.00;;;;;20.62;50.08;101119.78;4853816;29;45614;-85
2022/05/10 04:04:23;;;;;;;;;21.00;17.67;;;;;20.60;49.76;101110.81;4855336;29;45752;-86
2022/05/10 04:06:50;;;;;;;;;15.33;14.33;;;;;20.69;49.48;101110.63;4857737;29;47702;-86
2022/05/10 04:09:16;;;;;;;;;16.67;15.67;;;;;20.73;49.23;101113.22;4874181;29;44814;-86
2022/05/10 04:11:44;;;;;;;;;17.00;17.00;;;;;20.77;49.00;101108.63;4873894;29;44919;-86
2022/05/10 04:14:09;;;;;;;;;16.33;16.33;;;;;20.84;48.87;101121.06;4872615;29;45614;-86
2022/05/10 04:16:35;;;;;;;;;19.00;18.00;;;;;20.91;48.62;101117.31;4857448;29;47639;-86
2022/05/10 04:19:02;;;;;;;;;14.00;14.00;;;;;21.01;48.41;101114.41;4870844;29;45797;-86
2022/05/10 04:21:27;;;;;;;;;18.00;18.00;;;;;21.00;48.30;101112.63;4856370;29;44777;-86
2022/05/10 04:23:53;;;;;;;;;12.67;12.67;;;;;21.08;47.82;101111.50;4856661;29;45536;-86
2022/05/10 04:26:19;;;;;;;;;15.00;15.00;;;;;21.01;47.81;101085.56;4884498;29;46477;-86
2022/05/10 04:28:45;;;;;;;;;17.67;16.00;;;;;21.19;47.40;101100.47;4855644;29;45595;-86
2022/05/10 04:31:11;;;;;;;;;16.33;16.33;;;;;21.20;47.47;101095.94;4853359;29;45409;-86
2022/05/10 04:33:37;;;;;;;;;13.00;13.00;;;;;21.26;47.32;101107.47;4854937;29;44918;-86
2022/05/10 04:36:04;;;;;;;;;18.33;17.00;;;;;21.29;47.10;101101.09;4853667;29;45732;-86
2022/05/10 04:38:30;;;;;;;;;16.33;15.00;;;;;21.29;46.93;101103.81;4852366;29;45497;-86
2022/05/10 04:43:40;;;;;;;;;17.67;17.33;;;;;21.33;46.80;101101.00;4853136;29;45402;-85
2022/05/10 04:46:05;;;;;;;;;18.00;17.00;;;;;21.33;46.78;101094.69;4852120;29;45393;-86
2022/05/10 04:48:32;;;;;;;;;19.33;19.33;;;;;21.41;46.83;101108.03;4867163;29;44920;-85
2022/05/10 04:50:58;;;;;;;;;16.67;16.00;;;;;21.47;46.57;101113.31;4853671;29;45456;-86
2022/05/10 04:53:24;;;;;;;;;16.33;15.33;;;;;21.38;46.73;101101.75;4852300;29;45544;-85
2022/05/10 04:55:49;;;;;;;;;13.33;13.33;;;;;21.49;46.10;101108.75;4853523;29;45508;-85
2022/05/10 04:58:15;;;;;;;;;14.67;14.67;;;;;21.46;46.24;101098.91;4856265;29;45419;-87
2022/05/10 05:00:41;;;;;;;;;14.33;14.33;;;;;21.53;45.88;101108.66;4874544;29;45422;-86
2022/05/10 05:03:07;;;;;;;;;15.00;13.00;;;;;21.47;45.99;101094.38;4874673;29;45354;-87
2022/05/10 05:05:32;;;;;;;;;15.67;15.00;;;;;21.30;46.06;101063.19;4857397;29;46633;-87
2022/05/10 05:07:58;;;;;;;;;15.33;14.00;;;;;21.48;45.75;101099.75;4858132;29;45423;-86
2022/05/10 05:10:24;;;;;;;;;19.00;18.33;;;;;21.42;46.07;101080.06;4855683;29;45395;-86
2022/05/10 05:16:12;;;;;;;;;14.00;14.00;;;;;21.67;45.88;101113.72;4870975;29;45171;-86
2022/05/10 05:18:38;;;;;;;;;17.33;17.33;;;;;21.68;45.58;101115.47;4871364;29;46231;-86
2022/05/10 05:21:03;;;;;;;;;13.67;13.67;;;;;21.69;45.63;101108.25;4872199;29;44719;-86
2022/05/10 05:23:29;;;;;;;;;16.67;15.00;;;;;21.72;45.58;101114.47;4856185;29;45721;-86
2022/05/10 05:25:55;;;;;;;;;18.00;17.33;;;;;21.72;45.54;101117.19;4857198;29;47497;-85
2022/05/10 05:28:22;;;;;;;;;17.67;16.33;;;;;21.75;45.59;101119.81;4857156;29;44955;-86
2022/05/10 05:30:48;;;;;;;;;18.00;18.00;;;;;21.74;45.84;101111.72;4855658;29;45479;-86
2022/05/10 05:33:14;;;;;;;;;18.67;18.67;;;;;21.81;45.70;101123.28;4873107;29;45445;-87
2022/05/10 05:38:15;;;;;;;;;16.00;15.67;;;;;21.82;45.23;101116.94;5140187;23;45976;-86
2022/05/10 05:40:40;;;;;;;;;18.00;18.00;;;;;21.83;45.31;101107.88;4895765;29;45908;-86
2022/05/10 05:43:06;;;;;;;;;16.00;15.33;;;;;21.93;45.20;101114.81;4878254;29;45442;-86
2022/05/10 05:45:32;;;;;;;;;17.33;17.33;;;;;21.93;45.11;101113.00;4879619;29;47045;-86
2022/05/10 05:47:59;;;;;;;;;17.33;17.00;;;;;22.02;44.91;101120.00;4877947;29;45443;-87
2022/05/10 05:50:25;;;;;;;;;18.00;16.33;;;;;22.03;45.11;101119.06;4877896;29;45498;-87
2022/05/10 05:52:51;;;;;;;;;15.67;14.00;;;;;22.10;44.75;101126.09;4877457;29;45555;-86
2022/05/10 05:55:34;;;;;;;;;16.33;16.33;;;;;22.18;44.87;101115.94;4881607;28;47032;-86
2022/05/10 05:58:00;;;;;;;;;16.00;16.00;;;;;22.13;45.22;101108.84;4864545;29;45475;-86
2022/05/10 06:00:26;;;;;;;;;17.00;17.00;;;;;22.23;44.87;101120.34;4892641;29;45398;-87
2022/05/10 06:02:52;;;;;;;;;16.67;16.33;;;;;22.27;45.09;101108.50;4889767;29;44879;-86
2022/05/10 06:05:19;;;;;;;;;16.33;16.33;;;;;22.38;44.57;101117.22;4891888;29;46273;-86
2022/05/10 06:07:45;;;;;;;;;14.67;14.00;;;;;22.41;44.97;101110.81;4892303;29;45383;-87
2022/05/10 06:10:11;;;;;;;;;17.33;16.33;;;;;22.49;44.45;101114.19;4875288;29;45434;-86
2022/05/10 06:12:37;;;;;;;;;11.67;11.67;;;;;22.52;44.37;101120.41;4876742;29;45397;-86
2022/05/10 06:15:08;;;;;;;;;19.33;19.00;;;;;22.62;44.37;101120.13;4892653;29;45758;-87
2022/05/10 06:17:35;;;;;;;;;17.00;17.00;;;;;22.59;44.70;101099.44;4890518;29;45403;-86
2022/05/10 06:20:04;;;;;;;;;19.00;17.00;;;;;22.74;43.99;101117.03;4892083;29;45355;-86
2022/05/10 06:22:31;;;;;;;;;18.33;17.33;;;;;22.86;44.44;101121.22;4891833;29;45383;-86
2022/05/10 06:25:02;;;;;;;;;16.67;16.67;;;;;22.87;44.25;101098.59;4876065;29;46852;-85
2022/05/10 06:27:32;;;;;;;;;18.67;18.67;;;;;23.04;43.81;101117.94;4876429;29;45560;-85
2022/05/10 06:29:58;;;;;;;;;19.00;19.00;;;;;22.96;43.96;101092.84;4877643;29;45488;-85
2022/05/10 06:32:47;;;;;;;;;21.33;20.33;;;;;23.02;43.57;101086.38;4877586;29;44820;-86
2022/05/10 06:35:14;;;;;;;;;15.00;15.00;;;;;23.15;43.52;101098.63;4893538;29;45834;-86
2022/05/10 06:40:40;;;;;;;;;14.67;14.67;;;;;23.40;43.59;101114.97;4880482;28;44818;-85
2022/05/10 06:43:12;;;;;;;;;18.67;18.67;;;;;23.43;43.07;101092.25;4891794;29;45394;-85
2022/05/10 06:45:45;;;;;;;;;17.33;17.33;;;;;23.47;43.01;101096.66;4847900;29;46767;-85
2022/05/10 06:48:28;;;;;;;;;19.00;17.67;;;;;23.53;43.36;101104.59;4891842;29;45469;-85
2022/05/10 06:51:12;;;;;;;;;20.00;19.00;;;;;23.66;42.77;101110.50;4890152;29;45534;-85
2022/05/10 06:53:38;;;;;;;;;20.00;19.67;;;;;23.41;43.00;101076.06;4874505;29;45331;-85
2022/05/10 06:56:05;;;;;;;;;18.00;18.00;;;;;23.34;42.96;101055.47;4876477;29;45229;-86
2022/05/10 06:58:34;;;;;;;;;17.33;17.00;;;;;23.66;43.04;101100.53;4876650;29;46149;-85
2022/05/10 07:01:20;;;;;;;;;17.67;17.67;;;;;23.80;42.61;101107.34;4892509;29;44925;-85
2022/05/10 07:03:48;;;;;;;;;18.00;18.00;;;;;23.81;43.16;101112.69;4874604;29;45287;-86
2022/05/10 07:06:20;;;;;;;;;18.33;18.33;;;;;23.65;42.56;101077.03;4876929;29;47106;-86
2022/05/10 07:08:48;;;;;;;;;18.00;16.00;;;;;23.84;42.27;101106.31;4894528;29;44866;-87
2022/05/10 07:11:19;;;;;;;;;18.00;16.00;;;;;23.65;42.85;101063.47;4876060;29;44805;-86
2022/05/10 07:13:57;;;;;;;;;18.67;17.33;;;;;23.95;42.56;101102.22;4875488;29;45458;-87
2022/05/10 07:17:11;;;;;;;;;20.00;19.00;;;;;24.02;42.26;101105.63;4873858;29;45448;-86
2022/05/10 07:19:36;;;;;;;;;18.67;18.67;;;;;23.90;42.85;101089.78;4876486;29;44853;-85
2022/05/10 07:22:05;;;;;;;;;18.00;18.00;;;;;23.98;42.23;101101.25;4875043;29;45867;-87
2022/05/10 07:25:14;;;;;;;;;19.67;18.67;;;;;24.08;42.63;101107.25;4895348;29;44992;-88
2022/05/10 07:27:46;;;;;;;;;16.67;16.67;;;;;23.93;42.87;101070.63;4838220;29;45423;-87
2022/05/10 07:30:24;;;;;;;;;16.00;16.00;;;;;23.91;43.00;101064.38;4893841;29;45440;-86
2022/05/10 07:32:56;;;;;;;;;18.33;18.33;;;;;23.91;42.62;101075.25;4877473;29;45442;-88
2022/05/10 07:39:04;;;;;;;;;19.00;18.33;;;;;23.79;42.99;101078.41;4897231;28;45890;-86
2022/05/10 07:41:48;;;;;;;;;21.33;19.67;;;;;23.82;43.48;101103.63;4901336;29;45328;-86
2022/05/10 07:44:14;;;;;;;;;22.33;21.33;;;;;23.57;43.67;101079.09;4883117;29;45454;-85
2022/05/10 07:47:10;;;;;;;;;;;;;;;;;;;;;
2022/05/10 07:49:39;;;;;;;;;20.67;19.00;;;;;23.87;43.68;101098.91;4898018;28;75726;-86
2022/05/10 07:52:13;;;;;;;;;17.67;15.67;;;;;23.96;43.36;101065.97;4880582;29;45427;-86
2022/05/10 07:54:39;;;;;;;;;18.00;16.67;;;;;24.32;43.52;101094.59;4881483;29;45506;-86
2022/05/10 07:57:05;;;;;;;;;20.00;20.00;;;;;24.63;43.06;101109.75;4896679;29;45419;-87
2022/05/10 07:59:31;;;;;;;;;20.67;20.00;;;;;24.75;42.84;101088.41;4895673;29;45384;-86
2022/05/10 08:05:16;;;;;;;;;15.67;15.67;;;;;25.09;42.27;101073.44;4885392;29;44778;-86
2022/05/10 08:07:50;;;;;;;;;18.67;16.67;;;;;25.29;42.08;101113.47;4881101;29;46149;-86
2022/05/10 08:10:17;;;;;;;;;18.00;18.00;;;;;25.17;42.09;101116.69;4879867;29;45501;-86
2022/05/10 08:13:31;;;;;;;;;20.00;20.00;;;;;25.25;42.21;101117.28;4885399;29;45341;-84
2022/05/10 08:16:08;;;;;;;;;18.00;17.00;;;;;25.10;42.07;101074.31;4808970;29;45092;-85
2022/05/10 08:22:35;;;;;;;;;;;;;;;;;;;;;
2022/05/10 08:25:48;;;;;;;;;;;;;;;;;;;;;
2022/05/10 08:29:02;;;;;;;;;18.67;18.00;;;;;25.77;40.91;101078.75;4737060;30;68121;-87
2022/05/10 08:31:50;;;;;;;;;16.67;15.67;;;;;26.15;40.37;101108.91;4743971;29;45498;-85
2022/05/10 08:34:18;;;;;;;;;16.00;16.00;;;;;26.23;40.13;101114.00;4752012;30;45543;-86
2022/05/10 08:38:06;;;;;;;;;;;;;;;;;;;;;
2022/05/10 08:44:42;;;;;;;;;16.33;16.33;;;;;27.08;38.13;101106.38;4726014;30;45539;-86
2022/05/10 09:01:36;;;;;;;;;16.00;16.00;;;;;28.28;35.90;101097.53;4789908;29;45751;-86
2022/05/10 09:04:40;;;;;;;;;16.67;16.67;;;;;28.48;35.04;101099.16;4807081;29;45770;-86
2022/05/10 09:20:59;;;;;;;;;12.67;12.33;;;;;29.21;33.66;101076.84;4958857;23;46201;-86
2022/05/10 09:24:01;;;;;;;;;16.33;15.67;;;;;29.25;33.85;101083.03;4900227;29;45397;-87
2022/05/10 09:26:47;;;;;;;;;16.33;16.33;;;;;28.92;34.16;101046.53;4897467;29;44767;-86
2022/05/10 09:29:15;;;;;;;;;17.00;15.00;;;;;29.17;33.90;101086.22;4897708;29;44769;-85
2022/05/10 09:35:09;;;;;;;;;16.00;15.67;;;;;29.26;34.57;101080.16;4826033;29;44938;-88
2022/05/10 09:38:03;;;;;;;;;11.67;11.67;;;;;29.20;33.96;101091.50;4839502;29;45644;-85
2022/05/10 10:20:44;;;;;;;;;11.33;11.33;;;;;28.35;33.75;101076.16;4872346;29;45389;-86
2022/05/10 10:23:30;;;;;;;;;12.00;12.00;;;;;28.32;32.69;101079.09;4864131;29;44847;-87
2022/05/10 10:26:03;;;;;;;;;14.00;14.00;;;;;28.20;32.71;101053.28;4859643;29;44826;-86
2022/05/10 10:28:52;;;;;;;;;12.67;12.67;;;;;28.16;32.42;101057.16;4859765;29;44899;-86
2022/05/10 10:31:38;;;;;;;;;17.33;14.67;;;;;28.20;32.62;101066.06;4877067;29;47203;-86
2022/05/10 10:34:45;;;;;;;;;14.33;12.33;;;;;28.17;32.26;101072.59;4862878;29;45368;-88
2022/05/10 10:37:36;;;;;;;;;13.33;12.67;;;;;27.84;31.71;101020.59;4862225;29;44933;-88
2022/05/10 10:40:54;;;;;;;;;12.33;11.00;;;;;28.16;32.69;101065.38;4797570;29;45401;-87
2022/05/10 10:44:04;;;;;;;;;12.00;12.00;;;;;28.20;32.72;101071.53;4846790;29;45713;-86
2022/05/10 10:46:42;;;;;;;;;12.00;12.00;;;;;28.09;32.52;101045.66;4831760;29;45480;-88
2022/05/10 10:49:42;;;;;;;;;10.67;10.67;;;;;28.27;32.76;101065.66;4837633;29;45437;-88
2022/05/10 10:52:17;;;;;;;;;11.33;11.33;;;;;28.20;32.71;101049.66;4836927;29;45669;-87
2022/05/10 10:55:18;;;;;;;;;10.00;10.00;;;;;28.19;32.05;101040.56;4824288;29;45571;-86
2022/05/10 11:01:56;;;;;;;;;12.33;12.33;;;;;28.66;32.26;101052.59;4860081;29;44963;-86
2022/05/10 11:05:05;;;;;;;;;;;;;;;;;;;;;
2022/05/10 11:08:17;;;;;;;;;9.00;9.00;;;;;28.62;31.45;101002.66;4781249;29;75595;-84
2022/05/10 11:11:13;;;;;;;;;12.00;12.00;;;;;29.01;32.07;101033.28;4779353;29;45474;-88
2022/05/10 11:14:12;;;;;;;;;10.00;9.00;;;;;29.06;31.30;101014.69;4782106;29;44893;-88
2022/05/10 11:17:17;;;;;;;;;11.00;11.00;;;;;29.26;31.28;101028.13;4781821;29;45744;-90
2022/05/10 11:20:19;;;;;;;;;12.00;12.00;;;;;29.37;31.49;101018.38;4780847;29;45530;-86
2022/05/10 11:23:33;;;;;;;;;11.67;11.67;;;;;29.53;31.12;101019.19;4844076;29;45485;-86
2022/05/10 11:26:11;;;;;;;;;7.33;7.33;;;;;29.58;30.81;100991.53;4893852;29;44783;-87
2022/05/10 11:29:02;;;;;;;;;11.00;10.00;;;;;29.84;30.43;101018.25;4896486;29;44953;-88
2022/05/10 11:32:07;;;;;;;;;12.00;12.00;;;;;29.84;30.46;100998.16;4874726;29;46880;-88
2022/05/10 11:34:50;;;;;;;;;12.67;11.67;;;;;29.96;30.75;101013.84;4876322;29;45302;-86
2022/05/10 11:37:39;;;;;;;;;;;;;;;;;;;;;
2022/05/10 11:40:28;;;;;;;;;12.67;11.33;;;;;30.06;30.78;101004.06;4871556;29;65101;-86
2022/05/10 11:43:13;;;;;;;;;12.00;10.00;;;;;30.28;30.67;101008.19;4873518;29;47049;-87
2022/05/10 11:46:06;;;;;;;;;10.00;10.00;;;;;30.45;29.98;100999.75;4872075;29;44915;-86
2022/05/10 11:53:18;;;;;;;;;13.00;12.33;;;;;30.37;29.67;100952.72;4841185;29;45440;-88
2022/05/10 11:59:39;;;;;;;;;;;;;;;;;;;;;
2022/05/10 12:02:46;;;;;;;;;;;;;;;;;;;;;
2022/05/10 12:22:38;;;;;;;;;13.00;12.00;;;;;30.00;30.13;100966.06;4878426;29;45445;-88
2022/05/10 12:26:00;;;;;;;;;;;;;;;;;;;;;
2022/05/10 12:29:19;;;;;;;;;11.00;10.00;;;;;29.65;29.99;100930.75;4875420;29;65469;-89
2022/05/10 12:32:01;;;;;;;;;11.33;11.00;;;;;29.60;30.58;100927.41;4854951;29;46744;-89
2022/05/10 12:35:23;;;;;;;;;10.33;10.33;;;;;29.60;30.72;100912.84;4863686;29;44774;-89
2022/05/10 12:37:52;;;;;;;;;10.00;10.00;;;;;29.75;30.55;100941.16;4789959;29;45593;-88
2022/05/10 12:40:41;;;;;;;;;10.00;10.00;;;;;29.88;30.83;100947.66;4791648;29;44993;-89
2022/05/10 12:47:26;;;;;;;;;11.00;11.00;;;;;29.98;30.44;100932.34;4726654;30;45595;-89
2022/05/10 12:50:44;;;;;;;;;;;;;;;;;;;;;
2022/05/10 12:53:51;;;;;;;;;13.00;12.00;;;;;29.96;29.89;100927.97;4715860;30;64101;-88
2022/05/10 12:57:06;;;;;;;;;;;;;;;;;;;;;
2022/05/10 12:59:39;;;;;;;;;10.67;10.33;;;;;29.81;30.40;100922.44;4727514;29;72985;-87
2022/05/10 13:02:16;;;;;;;;;10.00;10.00;;;;;29.54;29.91;100889.44;4729151;30;44985;-88
2022/05/10 13:04:59;;;;;;;;;10.67;10.67;;;;;29.43;30.40;100881.91;4723217;30;45754;-88
2022/05/10 13:07:49;;;;;;;;;10.00;9.67;;;;;29.71;30.41;100908.47;4715854;30;46166;-87
2022/05/10 13:10:34;;;;;;;;;11.67;11.67;;;;;29.66;30.52;100896.88;4715724;30;44932;-87
2022/05/10 13:13:33;;;;;;;;;6.00;6.00;;;;;29.74;30.40;100882.72;4732532;30;45553;-86
2022/05/10 13:16:25;;;;;;;;;11.67;10.33;;;;;30.00;30.34;100908.47;4731922;30;45382;-86
2022/05/10 13:18:54;;;;;;;;;7.67;7.00;;;;;29.81;29.94;100869.50;4748321;30;45539;-86
2022/05/10 13:21:49;;;;;;;;;10.33;10.33;;;;;30.14;29.66;100913.06;4779607;29;45470;-87
2022/05/10 13:24:18;;;;;;;;;10.33;10.33;;;;;30.00;29.45;100869.19;4769783;29;45502;-87
2022/05/10 13:27:02;;;;;;;;;12.67;12.67;;;;;30.19;30.24;100891.66;4785269;29;45364;-87
2022/05/10 13:29:55;;;;;;;;;13.33;12.33;;;;;30.31;29.99;100895.50;4804438;29;45694;-87
2022/05/10 13:33:05;;;;;;;;;10.33;10.33;;;;;30.39;29.70;100890.38;4827062;29;44774;-88
2022/05/10 13:39:37;;;;;;;;;11.00;11.00;;;;;30.64;29.33;100861.28;4771306;29;44932;-88
2022/05/10 13:45:27;;;;;;;;;;;;;;;;;;;;;
2022/05/10 13:48:50;;;;;;;;;8.67;8.67;;;;;31.20;29.13;100842.75;4790873;29;68260;-89
2022/05/10 13:51:23;;;;;;;;;13.33;11.67;;;;;32.21;28.17;100869.41;4798220;29;45099;-87
2022/05/10 13:54:19;;;;;;;;;13.00;12.00;;;;;33.91;26.22;100841.41;4780408;29;45155;-88
2022/05/10 14:01:01;;;;;;;;;10.67;10.67;;;;;35.74;23.54;100833.09;4790132;29;45877;-90
2022/05/10 14:13:43;;;;;;;;;;;;;;;;;;;;;
2022/05/10 14:17:08;;;;;;;;;10.00;10.00;;;;;39.38;20.78;100850.06;4883510;29;65179;-89
2022/05/10 15:13:18;;;;;;;;;9.00;9.00;;;;;42.18;16.70;100795.44;5318128;23;45398;-86
2022/05/10 15:16:21;;;;;;;;;11.00;11.00;;;;;39.54;18.52;100762.19;4877589;28;45574;-88
2022/05/10 15:19:08;;;;;;;;;10.00;10.00;;;;;40.10;19.19;100768.16;4820799;29;45605;-86
2022/05/10 15:21:49;;;;;;;;;9.67;9.00;;;;;43.91;18.23;100777.84;4816462;29;45010;-86
2022/05/10 15:24:29;;;;;;;;;9.00;9.00;;;;;46.76;15.23;100765.97;4798046;29;44800;-89
2022/05/10 15:28:05;;;;;;;;;11.33;10.00;;;;;48.71;13.93;100778.38;4814113;29;45653;-88
2022/05/10 15:30:34;;;;;;;;;9.67;9.67;;;;;46.77;14.26;100762.09;4767704;29;44958;-86
2022/05/10 15:33:15;;;;;;;;;10.00;10.00;;;;;45.42;14.53;100772.22;4817829;29;45780;-87
2022/05/10 15:36:23;;;;;;;;;8.33;8.33;;;;;43.84;15.76;100763.78;4797234;29;45542;-87
2022/05/10 15:39:17;;;;;;;;;8.00;8.00;;;;;42.14;16.41;100768.91;4790083;29;45795;-88
2022/05/10 15:41:45;;;;;;;;;8.33;8.33;;;;;40.14;17.79;100748.13;4791703;29;46509;-85
2022/05/10 15:44:14;;;;;;;;;15.67;14.67;;;;;38.77;18.49;100768.41;4794193;29;45304;-87
2022/05/10 15:46:45;;;;;;;;;8.67;8.67;;;;;37.56;19.53;100736.38;4786691;29;44895;-86
2022/05/10 15:49:15;;;;;;;;;9.00;9.00;;;;;38.33;19.89;100761.91;4790684;29;45548;-87
2022/05/10 15:51:42;;;;;;;;;11.00;11.00;;;;;37.43;19.92;100743.16;4798759;29;45695;-86
2022/05/10 15:54:18;;;;;;;;;9.00;9.00;;;;;38.52;19.96;100758.13;4837653;29;45581;-86